createdAt,value
2018-08-22T00:01:07.255Z,19.63
2018-08-22T00:03:35.302Z,19.61
2018-08-22T00:06:03.344Z,19.60
2018-08-22T00:08:36.689Z,19.58
2018-08-22T00:11:04.767Z,19.56
2018-08-22T00:13:32.827Z,19.53
2018-08-22T00:16:00.896Z,19.49
2018-08-22T00:18:28.936Z,19.46
2018-08-22T00:20:57.011Z,19.45
2018-08-22T00:23:25.054Z,19.43
2018-08-22T00:25:53.153Z,19.41
2018-08-22T00:28:21.190Z,19.39
2018-08-22T00:30:49.256Z,19.37
2018-08-22T00:33:17.307Z,19.35
2018-08-22T00:35:45.615Z,19.34
2018-08-22T00:38:13.658Z,19.31
2018-08-22T00:40:42.021Z,19.28
2018-08-22T00:43:10.113Z,19.25
2018-08-22T00:45:38.217Z,19.24
2018-08-22T00:48:06.263Z,19.23
2018-08-22T00:50:34.343Z,19.21
2018-08-22T00:53:02.460Z,19.21
2018-08-22T00:55:30.536Z,19.18
2018-08-22T00:57:58.599Z,19.16
2018-08-22T01:00:26.688Z,19.13
2018-08-22T01:02:54.740Z,19.09
2018-08-22T01:05:22.891Z,19.06
2018-08-22T01:07:50.985Z,19.08
2018-08-22T01:10:19.080Z,19.07
2018-08-22T01:12:47.142Z,19.08
2018-08-22T01:15:15.256Z,19.11
2018-08-22T01:17:43.292Z,19.11
2018-08-22T01:20:11.375Z,19.14
2018-08-22T01:22:39.476Z,19.17
2018-08-22T01:25:07.564Z,19.19
2018-08-22T01:27:35.612Z,19.18
2018-08-22T01:30:03.695Z,19.18
2018-08-22T01:32:31.741Z,19.19
2018-08-22T01:34:59.799Z,19.17
2018-08-22T01:37:27.886Z,19.18
2018-08-22T01:39:55.943Z,19.20
2018-08-22T01:42:24.003Z,19.22
2018-08-22T01:44:52.048Z,19.24
2018-08-22T01:47:20.118Z,19.25
2018-08-22T01:49:48.167Z,19.26
2018-08-22T01:52:16.244Z,19.26
2018-08-22T01:54:44.331Z,19.28
2018-08-22T01:57:12.387Z,19.29
2018-08-22T01:59:40.443Z,19.25
2018-08-22T02:02:08.503Z,19.24
2018-08-22T02:04:36.554Z,19.19
2018-08-22T02:07:04.633Z,19.18
2018-08-22T02:09:32.698Z,19.20
2018-08-22T02:12:00.760Z,19.19
2018-08-22T02:14:28.819Z,19.18
2018-08-22T02:16:56.873Z,19.19
2018-08-22T02:19:24.975Z,19.22
2018-08-22T02:21:53.055Z,19.18
2018-08-22T02:24:21.111Z,19.17
2018-08-22T02:26:49.203Z,19.17
2018-08-22T02:29:17.271Z,19.15
2018-08-22T02:31:45.341Z,19.12
2018-08-22T02:34:13.391Z,19.12
2018-08-22T02:36:41.451Z,19.13
2018-08-22T02:39:09.955Z,19.12
2018-08-22T02:41:38.021Z,19.10
2018-08-22T02:44:06.083Z,19.08
2018-08-22T02:46:34.142Z,19.10
2018-08-22T02:49:02.192Z,19.08
2018-08-22T02:51:30.317Z,19.08
2018-08-22T02:53:58.382Z,19.07
2018-08-22T02:56:26.470Z,19.08
2018-08-22T02:58:54.487Z,19.10
2018-08-22T03:01:22.579Z,19.09
2018-08-22T03:03:50.636Z,19.09
2018-08-22T03:06:18.683Z,19.06
2018-08-22T03:08:46.715Z,19.06
2018-08-22T03:11:14.786Z,19.02
2018-08-22T03:13:42.822Z,19.01
2018-08-22T03:16:10.906Z,19.03
2018-08-22T03:18:38.944Z,19.02
2018-08-22T03:21:07.012Z,19.01
2018-08-22T03:23:35.059Z,19.02
2018-08-22T03:26:03.151Z,19.04
2018-08-22T03:28:31.205Z,19.04
2018-08-22T03:30:59.296Z,19.04
2018-08-22T03:33:27.352Z,19.05
2018-08-22T03:35:55.434Z,19.06
2018-08-22T03:38:23.487Z,19.10
2018-08-22T03:40:51.535Z,19.10
2018-08-22T03:43:19.627Z,19.11
2018-08-22T03:45:47.671Z,19.12
2018-08-22T03:48:16.031Z,19.12
2018-08-22T03:50:44.098Z,19.12
2018-08-22T03:53:12.691Z,19.12
2018-08-22T03:55:40.764Z,19.14
2018-08-22T03:58:08.840Z,19.13
2018-08-22T04:00:36.879Z,19.15
2018-08-22T04:03:04.970Z,19.18
2018-08-22T04:05:33.026Z,19.20
2018-08-22T04:08:01.111Z,19.22
2018-08-22T04:10:29.164Z,19.23
2018-08-22T04:12:57.247Z,19.25
2018-08-22T04:15:25.324Z,19.26
2018-08-22T04:17:53.380Z,19.28
2018-08-22T04:20:21.442Z,19.31
2018-08-22T04:22:49.502Z,19.34
2018-08-22T04:25:17.546Z,19.36
2018-08-22T04:27:45.618Z,19.39
2018-08-22T04:30:13.671Z,19.38
2018-08-22T04:32:41.775Z,19.40
2018-08-22T04:35:09.833Z,19.41
2018-08-22T04:37:37.919Z,19.39
2018-08-22T04:40:05.984Z,19.42
2018-08-22T04:42:34.041Z,19.43
2018-08-22T04:45:02.115Z,19.43
2018-08-22T04:47:30.188Z,19.44
2018-08-22T04:49:58.237Z,19.42
2018-08-22T04:52:26.323Z,19.45
2018-08-22T04:54:54.371Z,19.44
2018-08-22T04:57:22.428Z,19.48
2018-08-22T04:59:50.483Z,19.51
2018-08-22T05:02:18.575Z,19.56
2018-08-22T05:04:46.641Z,19.58
2018-08-22T05:07:14.690Z,19.62
2018-08-22T05:09:42.789Z,19.66
2018-08-22T05:12:10.831Z,19.70
2018-08-22T05:14:38.924Z,19.73
2018-08-22T05:17:06.996Z,19.77
2018-08-22T05:19:35.092Z,19.80
2018-08-22T05:22:03.151Z,19.85
2018-08-22T05:24:31.211Z,19.93
2018-08-22T05:26:59.280Z,19.99
2018-08-22T05:29:27.433Z,20.02
2018-08-22T05:31:58.117Z,20.07
2018-08-22T05:34:26.484Z,20.09
2018-08-22T05:36:54.535Z,20.14
2018-08-22T05:39:22.634Z,20.21
2018-08-22T05:41:50.691Z,20.21
2018-08-22T05:44:18.943Z,20.24
2018-08-22T05:46:47.004Z,20.33
2018-08-22T05:49:15.164Z,20.42
2018-08-22T05:51:43.226Z,20.48
2018-08-22T05:54:11.321Z,20.52
2018-08-22T05:56:39.367Z,20.61
2018-08-22T05:59:07.456Z,20.73
2018-08-22T06:01:35.526Z,20.86
2018-08-22T06:04:03.608Z,20.97
2018-08-22T06:06:31.657Z,21.12
2018-08-22T06:08:59.736Z,21.38
2018-08-22T06:11:27.815Z,21.50
2018-08-22T06:13:55.871Z,21.84
2018-08-22T06:16:24.007Z,22.25
2018-08-22T06:18:52.143Z,22.66
2018-08-22T06:21:20.187Z,23.27
2018-08-22T06:23:48.255Z,23.87
2018-08-22T06:26:16.331Z,24.46
2018-08-22T06:28:44.388Z,25.18
2018-08-22T06:31:12.466Z,25.81
2018-08-22T06:33:40.528Z,26.25
2018-08-22T06:36:08.575Z,26.44
2018-08-22T06:38:36.658Z,26.86
2018-08-22T06:41:04.915Z,27.32
2018-08-22T06:43:32.992Z,27.74
2018-08-22T06:46:01.079Z,28.30
2018-08-22T06:48:29.136Z,28.51
2018-08-22T06:50:57.179Z,28.55
2018-08-22T06:53:25.261Z,28.59
2018-08-22T06:55:53.287Z,28.56
2018-08-22T06:58:21.411Z,28.79
2018-08-22T07:00:49.489Z,28.75
2018-08-22T07:03:17.530Z,28.67
2018-08-22T07:05:45.594Z,29.01
2018-08-22T07:08:13.747Z,29.42
2018-08-22T07:10:41.746Z,29.87
2018-08-22T07:13:09.835Z,30.13
2018-08-22T07:15:37.903Z,30.33
2018-08-22T07:18:06.008Z,30.54
2018-08-22T07:20:34.136Z,30.94
2018-08-22T07:23:02.329Z,30.93
2018-08-22T07:25:30.422Z,31.20
2018-08-22T07:27:58.499Z,31.55
2018-08-22T07:30:26.610Z,31.73
2018-08-22T07:32:54.673Z,31.70
2018-08-22T07:35:22.750Z,32.02
2018-08-22T07:37:50.837Z,32.19
2018-08-22T07:40:18.915Z,32.13
2018-08-22T07:42:46.988Z,32.34
2018-08-22T07:45:15.173Z,32.53
2018-08-22T07:47:43.359Z,32.81
2018-08-22T07:50:11.495Z,32.84
2018-08-22T07:52:47.949Z,32.99
2018-08-22T07:55:16.122Z,32.75
2018-08-22T07:57:44.200Z,32.87
2018-08-22T08:00:12.345Z,33.17
2018-08-22T08:02:40.400Z,33.48
2018-08-22T08:05:08.911Z,33.62
2018-08-22T08:07:37.067Z,33.50
2018-08-22T08:10:05.229Z,33.76
2018-08-22T08:12:40.219Z,33.35
2018-08-22T08:15:08.829Z,33.11
2018-08-22T08:17:36.888Z,33.18
2018-08-22T08:20:05.364Z,33.27
2018-08-22T08:22:34.097Z,33.13
2018-08-22T08:25:02.290Z,33.04
2018-08-22T08:27:30.387Z,32.86
2018-08-22T08:29:58.460Z,32.41
2018-08-22T08:32:26.563Z,32.56
2018-08-22T08:34:55.090Z,32.73
2018-08-22T08:37:23.156Z,32.60
2018-08-22T08:39:51.276Z,32.75
2018-08-22T08:42:19.367Z,32.68
2018-08-22T08:44:47.480Z,32.83
2018-08-22T08:47:15.563Z,32.98
2018-08-22T08:49:43.665Z,32.44
2018-08-22T08:52:11.730Z,32.62
2018-08-22T08:54:39.785Z,32.65
2018-08-22T08:57:07.927Z,32.64
2018-08-22T08:59:35.999Z,32.68
2018-08-22T09:02:04.049Z,32.54
2018-08-22T09:04:32.178Z,32.53
2018-08-22T09:07:00.695Z,32.22
2018-08-22T09:09:28.858Z,32.09
2018-08-22T09:11:58.764Z,32.05
2018-08-22T09:14:26.878Z,32.19
2018-08-22T09:16:55.323Z,32.55
2018-08-22T09:19:23.440Z,32.78
2018-08-22T09:21:51.513Z,32.96
2018-08-22T09:24:19.763Z,33.24
2018-08-22T09:26:47.975Z,33.52
2018-08-22T09:29:16.043Z,33.81
2018-08-22T09:31:44.158Z,33.70
2018-08-22T09:34:12.309Z,33.55
2018-08-22T09:36:40.621Z,33.83
2018-08-22T09:39:10.971Z,33.97
2018-08-22T09:41:39.072Z,34.02
2018-08-22T09:44:07.712Z,33.48
2018-08-22T09:46:35.891Z,32.92
2018-08-22T09:49:04.081Z,32.43
2018-08-22T09:51:32.249Z,32.19
2018-08-22T09:54:00.418Z,31.83
2018-08-22T09:56:28.548Z,31.61
2018-08-22T09:58:57.687Z,31.46
2018-08-22T10:01:31.146Z,31.42
2018-08-22T10:04:00.482Z,31.27
2018-08-22T10:06:32.369Z,31.11
2018-08-22T10:09:01.411Z,31.06
2018-08-22T10:11:29.508Z,30.99
2018-08-22T10:13:58.191Z,31.05
2018-08-22T10:16:27.800Z,31.07
2018-08-22T10:18:56.219Z,31.05
2018-08-22T10:21:25.358Z,31.14
2018-08-22T10:23:53.415Z,31.06
2018-08-22T10:26:21.516Z,30.92
2018-08-22T10:28:49.766Z,30.95
2018-08-22T10:31:17.863Z,30.82
2018-08-22T10:33:45.982Z,30.67
2018-08-22T10:36:14.025Z,30.67
2018-08-22T10:38:42.145Z,30.56
2018-08-22T10:41:10.434Z,30.58
2018-08-22T10:43:38.572Z,30.63
2018-08-22T10:46:06.935Z,30.70
2018-08-22T10:48:34.993Z,30.78
2018-08-22T10:51:03.136Z,30.76
2018-08-22T10:53:31.247Z,30.73
2018-08-22T10:55:59.315Z,30.66
2018-08-22T10:58:27.404Z,30.76
2018-08-22T11:00:55.473Z,30.69
2018-08-22T11:03:23.572Z,30.74
2018-08-22T11:05:51.638Z,30.81
2018-08-22T11:08:19.697Z,30.81
2018-08-22T11:10:47.762Z,30.90
2018-08-22T11:13:15.821Z,30.88
2018-08-22T11:15:43.942Z,30.91
2018-08-22T11:18:12.093Z,31.04
2018-08-22T11:20:48.345Z,31.14
2018-08-22T11:23:29.105Z,31.36
2018-08-22T11:26:08.923Z,31.54
2018-08-22T11:28:48.404Z,31.62
2018-08-22T11:31:28.393Z,31.79
2018-08-22T11:34:07.842Z,31.88
2018-08-22T11:36:35.371Z,31.84
2018-08-22T11:39:04.928Z,31.84
2018-08-22T11:41:33.219Z,31.82
2018-08-22T11:44:01.262Z,31.81
2018-08-22T11:46:29.337Z,31.72
2018-08-22T11:48:57.400Z,31.82
2018-08-22T11:51:25.457Z,31.93
2018-08-22T11:53:53.597Z,32.17
2018-08-22T11:56:21.637Z,32.36
2018-08-22T11:58:49.743Z,32.41
2018-08-22T12:01:17.863Z,32.46
2018-08-22T12:03:45.916Z,32.50
2018-08-22T12:06:13.981Z,32.59
2018-08-22T12:08:43.023Z,32.69
2018-08-22T12:11:11.082Z,32.69
2018-08-22T12:13:39.147Z,32.69
2018-08-22T12:16:07.245Z,32.72
2018-08-22T12:18:35.283Z,32.81
2018-08-22T12:21:03.354Z,32.87
2018-08-22T12:23:31.404Z,32.96
2018-08-22T12:25:59.452Z,32.96
2018-08-22T12:28:27.499Z,33.05
2018-08-22T12:30:55.580Z,33.10
2018-08-22T12:33:23.643Z,33.13
2018-08-22T12:35:51.713Z,33.08
2018-08-22T12:38:19.759Z,33.01
2018-08-22T12:40:47.812Z,32.99
2018-08-22T12:43:15.855Z,32.98
2018-08-22T12:45:43.923Z,32.97
2018-08-22T12:48:12.004Z,32.99
2018-08-22T12:50:40.065Z,33.03
2018-08-22T12:53:08.115Z,32.97
2018-08-22T12:55:36.199Z,32.96
2018-08-22T12:58:04.288Z,32.42
2018-08-22T13:00:32.366Z,32.90
2018-08-22T13:03:00.837Z,32.89
2018-08-22T13:05:29.067Z,32.86
2018-08-22T13:07:57.370Z,32.90
2018-08-22T13:10:25.496Z,32.89
2018-08-22T13:12:53.619Z,32.76
2018-08-22T13:15:21.909Z,32.66
2018-08-22T13:17:50.155Z,32.63
2018-08-22T13:20:18.333Z,32.09
2018-08-22T13:22:46.400Z,32.61
2018-08-22T13:25:14.603Z,32.57
2018-08-22T13:27:42.756Z,32.56
2018-08-22T13:30:11.237Z,32.56
2018-08-22T13:32:39.357Z,32.55
2018-08-22T13:35:07.878Z,32.42
2018-08-22T13:37:36.190Z,32.26
2018-08-22T13:40:04.428Z,32.34
2018-08-22T13:42:32.527Z,32.32
2018-08-22T13:45:00.816Z,32.31
2018-08-22T13:47:28.892Z,32.35
2018-08-22T13:49:56.984Z,32.41
2018-08-22T13:52:25.891Z,32.43
2018-08-22T13:54:54.469Z,32.49
2018-08-22T13:57:22.562Z,32.36
2018-08-22T13:59:50.691Z,32.02
2018-08-22T14:02:18.882Z,32.06
2018-08-22T14:04:47.099Z,31.96
2018-08-22T14:07:15.547Z,32.03
2018-08-22T14:09:43.632Z,32.10
2018-08-22T14:12:11.968Z,31.98
2018-08-22T14:14:40.341Z,31.88
2018-08-22T14:17:08.814Z,31.84
2018-08-22T14:19:37.036Z,31.74
2018-08-22T14:22:05.737Z,31.67
2018-08-22T14:24:33.813Z,31.71
2018-08-22T14:27:01.965Z,31.79
2018-08-22T14:29:30.492Z,31.94
2018-08-22T14:31:58.571Z,32.06
2018-08-22T14:34:26.618Z,32.19
2018-08-22T14:36:54.736Z,32.29
2018-08-22T14:39:23.369Z,32.34
2018-08-22T14:41:51.408Z,32.31
2018-08-22T14:44:19.611Z,32.36
2018-08-22T14:46:48.742Z,32.39
2018-08-22T14:49:16.801Z,32.39
2018-08-22T14:51:44.919Z,32.36
2018-08-22T14:54:13.023Z,32.40
2018-08-22T14:56:41.108Z,32.42
2018-08-22T14:59:09.168Z,32.42
2018-08-22T15:01:37.384Z,32.43
2018-08-22T15:04:05.834Z,32.36
2018-08-22T15:06:34.139Z,32.25
2018-08-22T15:09:07.499Z,32.15
2018-08-22T15:11:36.457Z,32.19
2018-08-22T15:14:05.043Z,32.19
2018-08-22T15:16:33.192Z,32.21
2018-08-22T15:19:01.292Z,32.20
2018-08-22T15:21:29.364Z,32.19
2018-08-22T15:23:57.432Z,32.23
2018-08-22T15:26:25.805Z,32.21
2018-08-22T15:28:53.884Z,32.19
2018-08-22T15:31:21.965Z,32.15
2018-08-22T15:33:50.019Z,32.11
2018-08-22T15:36:20.022Z,32.09
2018-08-22T15:38:48.175Z,32.07
2018-08-22T15:41:16.419Z,32.07
2018-08-22T15:43:44.455Z,32.02
2018-08-22T15:46:12.526Z,31.99
2018-08-22T15:48:40.620Z,31.94
2018-08-22T15:51:08.712Z,31.90
2018-08-22T15:53:36.823Z,31.92
2018-08-22T15:56:05.187Z,31.86
2018-08-22T15:58:33.296Z,31.83
2018-08-22T16:01:01.399Z,31.78
2018-08-22T16:03:29.463Z,31.67
2018-08-22T16:05:57.683Z,31.67
2018-08-22T16:08:27.038Z,31.69
2018-08-22T16:10:55.193Z,31.61
2018-08-22T16:13:30.365Z,31.56
2018-08-22T16:16:01.012Z,31.47
2018-08-22T16:18:29.116Z,31.41
2018-08-22T16:20:58.356Z,31.37
2018-08-22T16:23:27.639Z,31.37
2018-08-22T16:25:56.599Z,31.40
2018-08-22T16:28:25.219Z,31.42
2018-08-22T16:30:57.173Z,31.42
2018-08-22T16:33:23.831Z,31.42
2018-08-22T16:35:51.918Z,31.39
2018-08-22T16:38:19.968Z,31.32
2018-08-22T16:40:54.745Z,31.34
2018-08-22T16:43:38.183Z,31.36
2018-08-22T16:46:08.039Z,31.33
2018-08-22T16:48:36.296Z,31.26
2018-08-22T16:51:04.408Z,31.12
2018-08-22T16:53:32.792Z,31.13
2018-08-22T16:56:00.843Z,31.16
2018-08-22T16:58:28.907Z,31.13
2018-08-22T17:00:56.971Z,31.07
2018-08-22T17:03:25.371Z,30.92
2018-08-22T17:06:00.276Z,30.82
2018-08-22T17:08:29.074Z,30.87
2018-08-22T17:10:58.585Z,30.91
2018-08-22T17:13:33.423Z,30.89
2018-08-22T17:16:02.116Z,30.82
2018-08-22T17:18:30.151Z,30.79
2018-08-22T17:20:58.235Z,30.74
2018-08-22T17:23:26.278Z,30.66
2018-08-22T17:25:54.356Z,30.60
2018-08-22T17:28:38.849Z,30.58
2018-08-22T17:31:07.031Z,30.53
2018-08-22T17:33:41.235Z,30.48
2018-08-22T17:36:10.377Z,30.40
2018-08-22T17:38:38.557Z,30.34
2018-08-22T17:41:06.596Z,30.25
2018-08-22T17:43:54.171Z,30.18
2018-08-22T17:46:23.178Z,30.10
2018-08-22T17:48:51.682Z,30.05
2018-08-22T17:51:19.755Z,30.00
2018-08-22T17:53:47.852Z,29.95
2018-08-22T17:56:15.948Z,29.91
2018-08-22T17:58:44.070Z,29.85
2018-08-22T18:01:12.179Z,29.81
2018-08-22T18:03:40.265Z,29.72
2018-08-22T18:06:08.452Z,29.64
2018-08-22T18:08:36.545Z,29.57
2018-08-22T18:11:04.940Z,29.48
2018-08-22T18:13:32.999Z,29.42
2018-08-22T18:16:01.059Z,29.30
2018-08-22T18:18:29.156Z,29.23
2018-08-22T18:20:59.226Z,29.14
2018-08-22T18:23:27.291Z,29.03
2018-08-22T18:26:01.641Z,28.94
2018-08-22T18:28:29.999Z,28.82
2018-08-22T18:30:58.109Z,28.71
2018-08-22T18:33:26.198Z,28.62
2018-08-22T18:35:54.280Z,28.53
2018-08-22T18:38:22.387Z,28.43
2018-08-22T18:41:01.883Z,28.33
2018-08-22T18:43:29.954Z,28.20
2018-08-22T18:46:04.065Z,28.11
2018-08-22T18:48:33.318Z,28.01
2018-08-22T18:51:01.974Z,27.89
2018-08-22T18:53:30.035Z,27.81
2018-08-22T18:56:09.912Z,27.70
2018-08-22T18:58:38.115Z,27.59
2018-08-22T19:01:06.477Z,27.51
2018-08-22T19:03:34.756Z,27.41
2018-08-22T19:06:02.817Z,27.34
2018-08-22T19:08:30.907Z,27.24
2018-08-22T19:10:58.985Z,27.17
2018-08-22T19:13:27.280Z,27.09
2018-08-22T19:15:58.435Z,27.00
2018-08-22T19:18:26.594Z,26.93
2018-08-22T19:20:56.904Z,26.86
2018-08-22T19:23:25.183Z,26.79
2018-08-22T19:25:54.056Z,26.74
2018-08-22T19:28:22.152Z,26.68
2018-08-22T19:30:50.379Z,26.61
2018-08-22T19:33:19.900Z,26.55
2018-08-22T19:35:48.149Z,26.50
2018-08-22T19:38:17.688Z,26.46
2018-08-22T19:40:47.008Z,26.43
2018-08-22T19:43:15.166Z,26.39
2018-08-22T19:45:43.223Z,26.36
2018-08-22T19:48:11.309Z,26.31
2018-08-22T19:50:39.419Z,26.28
2018-08-22T19:53:07.461Z,26.24
2018-08-22T19:55:36.210Z,26.21
2018-08-22T19:58:04.283Z,26.17
2018-08-22T20:00:32.380Z,26.13
2018-08-22T20:03:00.471Z,26.08
2018-08-22T20:05:42.972Z,26.00
2018-08-22T20:08:11.206Z,25.92
2018-08-22T20:10:39.266Z,25.87
2018-08-22T20:13:07.346Z,25.83
2018-08-22T20:15:35.448Z,25.78
2018-08-22T20:18:03.608Z,25.74
2018-08-22T20:20:31.679Z,25.66
2018-08-22T20:22:59.886Z,25.61
2018-08-22T20:25:27.867Z,25.57
2018-08-22T20:27:56.129Z,25.51
2018-08-22T20:30:24.204Z,25.44
2018-08-22T20:32:58.323Z,25.36
2018-08-22T20:35:32.191Z,25.29
2018-08-22T20:38:04.601Z,25.21
2018-08-22T20:40:32.665Z,25.19
2018-08-22T20:43:00.745Z,25.15
2018-08-22T20:45:33.125Z,25.12
2018-08-22T20:48:06.465Z,25.09
2018-08-22T20:50:35.181Z,25.05
2018-08-22T20:53:05.396Z,25.00
2018-08-22T20:55:33.672Z,24.97
2018-08-22T20:58:02.367Z,24.92
2018-08-22T21:00:30.571Z,24.89
2018-08-22T21:02:59.420Z,24.86
2018-08-22T21:05:27.484Z,24.82
2018-08-22T21:07:55.560Z,24.75
2018-08-22T21:10:23.703Z,24.71
2018-08-22T21:12:52.127Z,24.64
2018-08-22T21:15:20.261Z,24.59
2018-08-22T21:17:48.369Z,24.56
2018-08-22T21:20:23.598Z,24.53
2018-08-22T21:22:52.213Z,24.48
2018-08-22T21:25:20.299Z,24.43
2018-08-22T21:27:49.177Z,24.40
2018-08-22T21:30:17.636Z,24.36
2018-08-22T21:32:46.622Z,24.32
2018-08-22T21:35:20.145Z,24.30
2018-08-22T21:37:48.200Z,24.26
2018-08-22T21:40:16.496Z,24.19
2018-08-22T21:42:44.821Z,24.19
2018-08-22T21:45:12.927Z,24.13
2018-08-22T21:47:41.000Z,24.10
2018-08-22T21:50:09.113Z,24.07
2018-08-22T21:52:50.734Z,24.02
2018-08-22T21:55:20.256Z,23.98
2018-08-22T21:57:48.358Z,23.94
2018-08-22T22:00:16.463Z,23.91
2018-08-22T22:02:44.565Z,23.87
2018-08-22T22:05:13.200Z,23.85
2018-08-22T22:07:41.422Z,23.82
2018-08-22T22:10:12.596Z,23.78
2018-08-22T22:12:41.202Z,23.74
2018-08-22T22:15:13.710Z,23.70
2018-08-22T22:17:42.470Z,23.63
2018-08-22T22:20:10.945Z,23.58
2018-08-22T22:22:39.031Z,23.55
2018-08-22T22:25:07.305Z,23.52
2018-08-22T22:27:35.595Z,23.48
2018-08-22T22:30:06.226Z,23.45
2018-08-22T22:32:34.904Z,23.41
2018-08-22T22:35:03.570Z,23.37
2018-08-22T22:37:31.763Z,23.32
2018-08-22T22:39:59.908Z,23.29
2018-08-22T22:42:28.611Z,23.24
2018-08-22T22:44:58.315Z,23.21
2018-08-22T22:47:29.388Z,23.20
2018-08-22T22:49:58.001Z,23.16
2018-08-22T22:52:45.008Z,23.12
2018-08-22T22:55:13.402Z,23.12
2018-08-22T22:57:42.697Z,23.09
2018-08-22T23:00:12.434Z,23.04
2018-08-22T23:02:40.621Z,23.04
2018-08-22T23:05:08.931Z,23.03
2018-08-22T23:07:40.275Z,23.04
2018-08-22T23:10:09.780Z,23.03
2018-08-22T23:12:38.749Z,23.04
2018-08-22T23:15:08.107Z,23.04
2018-08-22T23:17:36.175Z,23.03
2018-08-22T23:20:40.161Z,23.03
2018-08-22T23:23:26.447Z,23.04
2018-08-22T23:25:55.453Z,23.03
2018-08-22T23:28:23.516Z,23.02
2018-08-22T23:30:51.572Z,23.01
2018-08-22T23:33:19.649Z,23.01
2018-08-22T23:35:47.731Z,23.02
2018-08-22T23:38:21.182Z,23.03
2018-08-22T23:40:49.235Z,23.04
2018-08-22T23:43:17.316Z,23.09
2018-08-22T23:45:50.116Z,23.11
2018-08-22T23:48:23.578Z,23.12
2018-08-22T23:50:56.213Z,23.10
2018-08-22T23:53:29.188Z,23.08
2018-08-22T23:56:11.895Z,23.07
2018-08-22T23:58:41.195Z,23.04
